Time;durP1;ratioP1;P1;durP2;ratioP2;P2;SDS_P1;SDS_P2;PMS_P1;PMS_P2;Temp;Humidity;BMP_temperature;BMP_pressure;BME280_temperature;BME280_humidity;BME280_pressure;Samples;Min_cycle;Max_cycle;Signal;HPM_P1;HPM_P2
2021/03/15 00:00:40;;;;;;;0.10;0.10;;;4.60;99.90;;;;;;5033012;28;20686;-84
2021/03/15 00:03:06;;;;;;;0.20;0.20;;;4.60;99.90;;;;;;5033050;28;20188;-84
2021/03/15 00:05:32;;;;;;;0.10;0.10;;;4.40;99.90;;;;;;5049675;28;20196;-85
2021/03/15 00:07:58;;;;;;;0.10;0.10;;;4.30;99.90;;;;;;5034748;28;20192;-86
2021/03/15 00:10:24;;;;;;;0.20;0.20;;;4.30;99.90;;;;;;5053905;28;20198;-85
2021/03/15 00:12:50;;;;;;;0.10;0.10;;;4.50;99.90;;;;;;5033253;28;20195;-85
2021/03/15 00:15:18;;;;;;;0.03;0.03;;;4.60;99.90;;;;;;5034218;28;20240;-85
2021/03/15 00:17:44;;;;;;;0.00;0.00;;;4.50;99.90;;;;;;5034720;28;20535;-85
2021/03/15 00:20:12;;;;;;;0.10;0.10;;;4.50;99.90;;;;;;5032669;28;20185;-85
2021/03/15 00:22:38;;;;;;;0.00;0.00;;;4.60;99.90;;;;;;5034904;28;20197;-85
2021/03/15 00:25:05;;;;;;;0.10;0.10;;;4.60;99.90;;;;;;5033628;28;20213;-84
2021/03/15 00:27:31;;;;;;;0.00;0.00;;;4.70;99.90;;;;;;5033329;28;20192;-85
2021/03/15 00:29:57;;;;;;;0.00;0.00;;;4.80;99.90;;;;;;5034393;28;20185;-84
2021/03/15 00:32:22;;;;;;;0.20;0.10;;;4.90;99.90;;;;;;5032466;28;20224;-84
2021/03/15 00:34:48;;;;;;;0.10;0.10;;;4.90;99.90;;;;;;5033885;28;20249;-84
2021/03/15 00:37:14;;;;;;;0.57;0.40;;;4.90;99.90;;;;;;5032806;28;20688;-84
2021/03/15 00:39:40;;;;;;;0.00;0.00;;;4.90;99.90;;;;;;5033505;28;20181;-84
2021/03/15 00:42:06;;;;;;;0.00;0.00;;;4.90;99.90;;;;;;5034110;28;20530;-85
2021/03/15 00:44:32;;;;;;;0.10;0.10;;;4.90;99.90;;;;;;5032754;28;20232;-85
2021/03/15 00:46:58;;;;;;;0.10;0.10;;;4.80;99.90;;;;;;5031106;28;20267;-84
2021/03/15 00:49:23;;;;;;;0.20;0.10;;;4.90;99.90;;;;;;5033985;28;20177;-84
2021/03/15 00:51:49;;;;;;;0.00;0.00;;;4.80;99.90;;;;;;5032856;28;20209;-84
2021/03/15 00:54:15;;;;;;;0.00;0.00;;;4.70;99.90;;;;;;5034882;28;20281;-84
2021/03/15 00:56:40;;;;;;;0.10;0.10;;;4.70;99.90;;;;;;5034252;28;20237;-84
2021/03/15 00:59:06;;;;;;;0.10;0.10;;;4.60;99.90;;;;;;5032602;28;20254;-85
2021/03/15 01:01:32;;;;;;;0.10;0.10;;;4.50;99.90;;;;;;5034238;28;20196;-84
2021/03/15 01:03:57;;;;;;;0.10;0.10;;;4.50;99.90;;;;;;5035301;28;20199;-84
2021/03/15 01:06:23;;;;;;;0.10;0.10;;;4.40;99.90;;;;;;5033703;28;20196;-86
2021/03/15 01:08:48;;;;;;;0.10;0.10;;;4.30;99.90;;;;;;5033226;28;20809;-85
2021/03/15 01:11:14;;;;;;;0.00;0.00;;;4.30;99.90;;;;;;5029577;28;20561;-84
2021/03/15 01:13:40;;;;;;;0.00;0.00;;;4.20;99.90;;;;;;5030379;28;20229;-85
2021/03/15 01:16:06;;;;;;;0.30;0.20;;;4.20;99.90;;;;;;5027939;28;20234;-85
2021/03/15 01:18:34;;;;;;;0.00;0.00;;;4.10;99.90;;;;;;5034301;28;20264;-84
2021/03/15 01:20:59;;;;;;;0.37;0.37;;;4.10;99.90;;;;;;5033102;28;20185;-85
2021/03/15 01:23:25;;;;;;;0.10;0.10;;;4.10;99.90;;;;;;5049343;28;20211;-85
2021/03/15 01:25:51;;;;;;;0.10;0.10;;;4.00;99.90;;;;;;5041062;28;20186;-84
2021/03/15 01:28:19;;;;;;;0.40;0.40;;;4.10;99.90;;;;;;5032610;28;20183;-84
2021/03/15 01:30:45;;;;;;;0.00;0.00;;;4.20;99.90;;;;;;5032087;28;20309;-84
2021/03/15 01:33:12;;;;;;;0.10;0.10;;;4.20;99.90;;;;;;5034020;28;20679;-85
2021/03/15 01:35:38;;;;;;;0.10;0.10;;;4.30;99.90;;;;;;5030998;28;20214;-84
2021/03/15 01:38:07;;;;;;;0.00;0.00;;;4.40;99.90;;;;;;5034211;28;20188;-84
2021/03/15 01:40:37;;;;;;;0.20;0.20;;;4.50;99.90;;;;;;5033822;28;20613;-84
2021/03/15 01:43:04;;;;;;;0.10;0.10;;;4.60;99.90;;;;;;5032197;28;20275;-84
2021/03/15 01:45:29;;;;;;;0.07;0.07;;;4.60;99.90;;;;;;5032032;28;20223;-84
2021/03/15 01:47:55;;;;;;;0.10;0.10;;;4.60;99.90;;;;;;5033013;28;20221;-85
2021/03/15 01:50:21;;;;;;;0.10;0.10;;;4.60;99.90;;;;;;5033791;28;20189;-84
2021/03/15 01:52:48;;;;;;;0.20;0.20;;;4.60;99.90;;;;;;5033962;28;20215;-84
2021/03/15 01:55:16;;;;;;;1.50;0.30;;;4.80;99.90;;;;;;5022384;28;20219;-85
2021/03/15 01:57:42;;;;;;;0.30;0.30;;;4.80;99.90;;;;;;5033639;28;20181;-84
2021/03/15 02:00:10;;;;;;;0.73;0.73;;;4.90;99.90;;;;;;5032056;28;20184;-85
2021/03/15 02:02:38;;;;;;;0.30;0.30;;;4.90;99.90;;;;;;5033188;28;20183;-85
2021/03/15 02:05:05;;;;;;;0.20;0.20;;;5.00;99.90;;;;;;5032412;28;20261;-85
2021/03/15 02:07:30;;;;;;;0.20;0.20;;;5.00;99.90;;;;;;5035262;28;20187;-84
2021/03/15 02:09:56;;;;;;;0.10;0.10;;;5.00;99.90;;;;;;5032393;28;20192;-84
2021/03/15 02:12:58;;;;;;;0.10;0.10;;;5.00;99.90;;;;;;5028455;28;20287;-84
2021/03/15 02:15:34;;;;;;;0.23;0.23;;;5.10;99.90;;;;;;5038676;28;20220;-85
2021/03/15 02:18:05;;;;;;;0.23;0.23;;;5.10;99.90;;;;;;5032353;28;20565;-85
2021/03/15 02:21:02;;;;;;;0.07;0.07;;;5.20;99.90;;;;;;5032478;28;20191;-85
2021/03/15 02:23:32;;;;;;;0.10;0.10;;;5.20;99.90;;;;;;5021642;28;20712;-85
2021/03/15 02:26:36;;;;;;;0.10;0.10;;;5.30;99.90;;;;;;5032282;28;20189;-85
2021/03/15 02:29:34;;;;;;;0.00;0.00;;;5.30;99.90;;;;;;5031917;28;20216;-84
2021/03/15 02:32:20;;;;;;;0.00;0.00;;;5.30;99.90;;;;;;5031940;28;20181;-85
2021/03/15 02:34:57;;;;;;;0.00;0.00;;;5.30;99.90;;;;;;5022937;28;20200;-85
2021/03/15 02:37:30;;;;;;;0.10;0.10;;;5.40;99.90;;;;;;5029752;28;20801;-84
2021/03/15 02:40:03;;;;;;;0.33;0.33;;;5.40;99.90;;;;;;5032801;28;20198;-86
2021/03/15 02:42:30;;;;;;;0.53;0.10;;;5.40;99.90;;;;;;5033251;28;20182;-85
2021/03/15 02:44:57;;;;;;;0.00;0.00;;;5.50;99.90;;;;;;5031142;28;20264;-84
2021/03/15 02:47:28;;;;;;;0.33;0.33;;;5.60;99.90;;;;;;5033298;28;20211;-85
2021/03/15 02:50:03;;;;;;;0.03;0.03;;;5.70;99.90;;;;;;5030639;28;20186;-84
2021/03/15 02:52:31;;;;;;;0.10;0.10;;;5.60;99.90;;;;;;5032818;28;20244;-85
2021/03/15 02:54:59;;;;;;;0.10;0.10;;;5.60;99.90;;;;;;5030970;28;20761;-84
2021/03/15 02:57:28;;;;;;;0.10;0.10;;;5.60;99.90;;;;;;5031907;28;20186;-85
2021/03/15 02:59:56;;;;;;;0.10;0.10;;;5.60;99.90;;;;;;5029650;28;20815;-84
2021/03/15 03:02:23;;;;;;;5.30;0.20;;;5.60;99.90;;;;;;5047161;28;20182;-84
2021/03/15 03:04:48;;;;;;;0.10;0.10;;;5.60;99.90;;;;;;5032289;28;20237;-86
2021/03/15 03:07:16;;;;;;;0.10;0.10;;;5.40;99.90;;;;;;5032535;28;20196;-85
2021/03/15 03:09:44;;;;;;;0.00;0.00;;;5.40;99.90;;;;;;5028272;28;20193;-86
2021/03/15 03:12:12;;;;;;;0.10;0.10;;;5.40;99.90;;;;;;5034461;28;20725;-85
2021/03/15 03:14:40;;;;;;;0.10;0.10;;;5.20;99.90;;;;;;5035933;28;20212;-85
2021/03/15 03:17:07;;;;;;;0.10;0.10;;;5.10;99.90;;;;;;5036126;28;20192;-85
2021/03/15 03:19:34;;;;;;;0.10;0.10;;;5.30;99.90;;;;;;5035241;28;20189;-86
2021/03/15 03:22:01;;;;;;;0.10;0.10;;;5.40;99.90;;;;;;5035940;28;20196;-85
2021/03/15 03:24:30;;;;;;;0.03;0.03;;;5.50;99.90;;;;;;5051376;28;20255;-85
2021/03/15 03:26:56;;;;;;;0.30;0.30;;;5.60;99.90;;;;;;5034792;28;20542;-84
2021/03/15 03:29:22;;;;;;;0.20;0.20;;;5.70;99.90;;;;;;5035632;28;20257;-85
2021/03/15 03:31:49;;;;;;;0.10;0.10;;;5.80;99.90;;;;;;5042804;28;20213;-85
2021/03/15 03:34:15;;;;;;;0.07;0.07;;;5.80;99.90;;;;;;5035893;28;20212;-85
2021/03/15 03:36:42;;;;;;;0.50;0.50;;;5.80;99.90;;;;;;5035588;28;20577;-85
2021/03/15 03:39:09;;;;;;;0.07;0.07;;;5.80;99.90;;;;;;5031900;28;20213;-85
2021/03/15 03:41:37;;;;;;;0.10;0.10;;;5.90;99.90;;;;;;5034858;28;20185;-85
2021/03/15 03:44:03;;;;;;;0.10;0.10;;;5.90;99.90;;;;;;5034002;28;20200;-85
2021/03/15 03:46:28;;;;;;;0.10;0.10;;;5.80;99.90;;;;;;5035054;28;20232;-84
2021/03/15 03:48:54;;;;;;;0.10;0.10;;;5.70;99.90;;;;;;5033578;28;20301;-84
2021/03/15 03:51:21;;;;;;;0.10;0.10;;;5.80;99.90;;;;;;5033929;28;20181;-85
2021/03/15 03:54:08;;;;;;;0.30;0.20;;;5.80;99.90;;;;;;5034711;28;20209;-85
2021/03/15 03:56:58;;;;;;;0.10;0.10;;;5.90;99.90;;;;;;5034893;28;20608;-85
2021/03/15 03:59:27;;;;;;;0.00;0.00;;;5.90;99.90;;;;;;5039960;28;20270;-85
2021/03/15 04:01:57;;;;;;;0.17;0.17;;;6.00;99.90;;;;;;5035633;28;20186;-85
2021/03/15 04:04:27;;;;;;;0.20;0.20;;;6.00;99.90;;;;;;5034368;28;20228;-86
2021/03/15 04:06:54;;;;;;;0.53;0.37;;;6.00;99.90;;;;;;5028752;28;20188;-84
2021/03/15 04:09:33;;;;;;;0.00;0.00;;;6.00;99.90;;;;;;5038484;28;20605;-85
2021/03/15 04:12:07;;;;;;;0.10;0.10;;;6.00;99.90;;;;;;5023037;28;20217;-84
2021/03/15 04:14:38;;;;;;;0.17;0.10;;;6.00;99.90;;;;;;5031859;28;20592;-85
2021/03/15 04:17:05;;;;;;;0.10;0.10;;;6.00;99.90;;;;;;5034235;28;20193;-85
2021/03/15 04:19:39;;;;;;;0.20;0.20;;;6.00;99.90;;;;;;5034634;28;20179;-85
2021/03/15 04:22:08;;;;;;;0.13;0.13;;;6.00;99.90;;;;;;5033854;28;20333;-85
2021/03/15 04:24:35;;;;;;;0.20;0.20;;;6.00;99.90;;;;;;5035141;28;20228;-86
2021/03/15 04:27:04;;;;;;;0.00;0.00;;;6.00;99.90;;;;;;5030448;28;20180;-85
2021/03/15 04:29:32;;;;;;;0.20;0.20;;;6.00;99.90;;;;;;5046337;28;20213;-85
2021/03/15 04:31:59;;;;;;;0.10;0.10;;;6.00;99.90;;;;;;5052271;28;20188;-85
2021/03/15 04:34:27;;;;;;;0.00;0.00;;;6.00;99.90;;;;;;5046317;28;20206;-85
2021/03/15 04:36:53;;;;;;;0.10;0.10;;;6.00;99.90;;;;;;5051996;28;20237;-85
2021/03/15 04:39:27;;;;;;;0.10;0.10;;;5.90;99.90;;;;;;5034896;28;20182;-85
2021/03/15 04:41:52;;;;;;;2.40;0.40;;;5.90;99.90;;;;;;5032007;28;20186;-85
2021/03/15 04:44:20;;;;;;;2.27;0.27;;;5.90;99.90;;;;;;5033397;28;20214;-85
2021/03/15 04:46:46;;;;;;;0.17;0.17;;;6.00;99.90;;;;;;5032374;28;20324;-85
2021/03/15 04:49:12;;;;;;;0.10;0.10;;;6.00;99.90;;;;;;5033282;28;20183;-85
2021/03/15 04:51:40;;;;;;;0.30;0.30;;;6.10;99.90;;;;;;5033420;28;20281;-85
2021/03/15 04:54:06;;;;;;;0.10;0.10;;;6.10;99.90;;;;;;5033184;28;20213;-85
2021/03/15 04:56:35;;;;;;;1.73;0.20;;;6.10;99.90;;;;;;5032433;28;20646;-85
2021/03/15 04:59:01;;;;;;;0.13;0.10;;;6.10;99.90;;;;;;5042145;28;20175;-85
2021/03/15 05:01:33;;;;;;;0.37;0.30;;;6.20;99.90;;;;;;5033411;28;20174;-85
2021/03/15 05:03:59;;;;;;;0.00;0.00;;;6.10;99.90;;;;;;5033917;28;20198;-85
2021/03/15 05:06:27;;;;;;;0.10;0.10;;;6.10;99.90;;;;;;5024033;28;20243;-86
2021/03/15 05:08:56;;;;;;;0.10;0.10;;;6.00;99.90;;;;;;5033362;28;20190;-86
2021/03/15 05:11:26;;;;;;;0.07;0.07;;;6.10;99.90;;;;;;5031741;28;20189;-86
2021/03/15 05:14:00;;;;;;;0.10;0.10;;;6.20;99.90;;;;;;5032525;28;20210;-86
2021/03/15 05:16:28;;;;;;;0.10;0.10;;;6.10;99.90;;;;;;5040073;28;20201;-85
2021/03/15 05:18:55;;;;;;;1.40;0.73;;;6.10;99.90;;;;;;5030269;28;20270;-86
2021/03/15 05:21:25;;;;;;;0.73;0.30;;;6.20;99.90;;;;;;5032460;28;20198;-85
2021/03/15 05:23:52;;;;;;;0.20;0.20;;;6.20;99.90;;;;;;5033450;28;20218;-85
2021/03/15 05:26:19;;;;;;;0.77;0.60;;;6.20;99.90;;;;;;5027574;28;20186;-86
2021/03/15 05:28:47;;;;;;;0.20;0.20;;;6.20;99.90;;;;;;5032613;28;20189;-85
2021/03/15 05:31:15;;;;;;;0.20;0.20;;;6.30;99.90;;;;;;5028892;28;20229;-85
2021/03/15 05:33:43;;;;;;;0.10;0.10;;;6.20;99.90;;;;;;5033051;28;20214;-85
2021/03/15 05:36:10;;;;;;;0.13;0.13;;;6.30;99.90;;;;;;5025129;28;20290;-84
2021/03/15 05:38:38;;;;;;;0.00;0.00;;;6.30;99.90;;;;;;5031496;28;20193;-85
2021/03/15 05:41:07;;;;;;;0.20;0.20;;;6.30;99.90;;;;;;5033644;28;20320;-85
2021/03/15 05:43:50;;;;;;;0.33;0.33;;;6.30;99.90;;;;;;5032757;28;20202;-84
2021/03/15 05:47:00;;;;;;;0.27;0.27;;;6.40;99.90;;;;;;5033034;28;20886;-85
2021/03/15 05:49:40;;;;;;;0.10;0.10;;;6.40;99.90;;;;;;5013285;28;20194;-86
2021/03/15 05:52:07;;;;;;;0.30;0.30;;;6.40;99.90;;;;;;5030628;28;20194;-85
2021/03/15 05:55:10;;;;;;;0.03;0.03;;;6.40;99.90;;;;;;5033418;28;20300;-82
2021/03/15 05:57:57;;;;;;;0.47;0.47;;;6.40;99.90;;;;;;5029171;28;20185;-83
2021/03/15 06:00:41;;;;;;;0.70;0.70;;;6.30;99.90;;;;;;5040001;28;20184;-83
2021/03/15 06:03:30;;;;;;;0.30;0.30;;;6.40;99.90;;;;;;5050139;28;20186;-83
2021/03/15 06:06:01;;;;;;;0.10;0.10;;;6.40;99.90;;;;;;5025298;28;20179;-84
2021/03/15 06:08:34;;;;;;;0.53;0.40;;;6.40;99.90;;;;;;5028263;28;20190;-83
2021/03/15 06:11:17;;;;;;;0.27;0.13;;;6.30;99.90;;;;;;5030770;28;20245;-84
2021/03/15 06:13:42;;;;;;;0.30;0.30;;;6.20;99.90;;;;;;5027024;28;20218;-84
2021/03/15 06:16:09;;;;;;;0.00;0.00;;;6.10;99.90;;;;;;5038922;28;20625;-85
2021/03/15 06:18:36;;;;;;;0.13;0.13;;;6.00;99.90;;;;;;5029684;28;20196;-83
2021/03/15 06:21:02;;;;;;;0.20;0.20;;;6.00;99.90;;;;;;5026689;28;20840;-87
2021/03/15 06:23:28;;;;;;;0.10;0.10;;;5.90;99.90;;;;;;5031470;28;20217;-84
2021/03/15 06:25:55;;;;;;;0.23;0.23;;;5.90;99.90;;;;;;5021221;28;20845;-84
2021/03/15 06:28:23;;;;;;;0.10;0.10;;;5.90;99.90;;;;;;5031168;28;20552;-84
2021/03/15 06:30:51;;;;;;;0.10;0.10;;;5.90;99.90;;;;;;5031507;28;20209;-85
2021/03/15 06:33:17;;;;;;;0.00;0.00;;;5.90;99.90;;;;;;5031047;28;20288;-85
2021/03/15 06:35:46;;;;;;;0.00;0.00;;;5.80;99.90;;;;;;5031038;28;20223;-85
2021/03/15 06:38:14;;;;;;;0.10;0.10;;;5.90;99.90;;;;;;5034755;28;20185;-85
2021/03/15 06:40:41;;;;;;;0.20;0.20;;;5.80;99.90;;;;;;5028310;28;20186;-83
2021/03/15 06:43:12;;;;;;;0.10;0.10;;;5.80;99.90;;;;;;5029928;28;20196;-83
2021/03/15 06:45:38;;;;;;;0.00;0.00;;;5.80;99.90;;;;;;5020771;28;20198;-82
2021/03/15 06:48:04;;;;;;;0.00;0.00;;;5.80;99.90;;;;;;5030286;28;20190;-84
2021/03/15 06:50:30;;;;;;;0.00;0.00;;;5.80;99.90;;;;;;5031397;28;20613;-84
2021/03/15 06:52:57;;;;;;;0.00;0.00;;;5.90;99.90;;;;;;5030514;28;20243;-84
2021/03/15 06:55:35;;;;;;;0.10;0.10;;;6.00;99.90;;;;;;5032108;28;20667;-83
2021/03/15 06:58:20;;;;;;;0.10;0.10;;;6.00;99.90;;;;;;5032391;28;20562;-84
2021/03/15 07:00:46;;;;;;;0.00;0.00;;;6.00;99.90;;;;;;5027935;28;20183;-83
2021/03/15 07:03:21;;;;;;;0.07;0.07;;;6.00;99.90;;;;;;5033531;28;20178;-84
2021/03/15 07:05:57;;;;;;;0.10;0.10;;;6.10;99.90;;;;;;5030613;28;20803;-85
2021/03/15 07:08:23;;;;;;;0.00;0.00;;;6.10;99.90;;;;;;5032638;28;20197;-84
2021/03/15 07:10:50;;;;;;;0.00;0.00;;;6.10;99.90;;;;;;5035788;28;20200;-85
2021/03/15 07:13:20;;;;;;;0.10;0.10;;;6.10;99.90;;;;;;5051921;28;20277;-86
2021/03/15 07:15:49;;;;;;;0.10;0.10;;;6.00;99.90;;;;;;5035268;28;20286;-84
2021/03/15 07:18:31;;;;;;;0.10;0.10;;;6.20;99.90;;;;;;5036300;28;20268;-83
2021/03/15 07:21:03;;;;;;;0.10;0.10;;;6.30;99.90;;;;;;5049276;28;20208;-85
2021/03/15 07:23:55;;;;;;;0.10;0.10;;;6.30;99.90;;;;;;5036016;28;20265;-84
2021/03/15 07:26:23;;;;;;;0.07;0.07;;;6.30;99.90;;;;;;5031791;28;20185;-83
2021/03/15 07:28:50;;;;;;;0.10;0.10;;;6.40;99.90;;;;;;5031578;28;20668;-86
2021/03/15 07:31:29;;;;;;;0.07;0.07;;;6.40;99.90;;;;;;5030401;28;20279;-84
2021/03/15 07:33:55;;;;;;;0.10;0.10;;;6.50;99.90;;;;;;5029875;28;20640;-85
2021/03/15 07:36:28;;;;;;;0.00;0.00;;;6.40;99.90;;;;;;5034502;28;20202;-86
2021/03/15 07:38:58;;;;;;;0.10;0.10;;;6.40;99.90;;;;;;5033181;28;20187;-86
2021/03/15 07:41:24;;;;;;;0.00;0.00;;;6.40;99.90;;;;;;5048395;28;20202;-85
2021/03/15 07:43:51;;;;;;;0.03;0.03;;;6.50;99.90;;;;;;5031280;28;20198;-86
2021/03/15 07:46:22;;;;;;;0.10;0.10;;;6.60;99.90;;;;;;5031195;28;20182;-85
2021/03/15 07:48:48;;;;;;;0.10;0.10;;;6.70;99.90;;;;;;5028402;28;20190;-83
2021/03/15 07:51:26;;;;;;;0.10;0.10;;;6.90;99.90;;;;;;5025654;28;20195;-83
2021/03/15 07:53:51;;;;;;;0.07;0.07;;;7.10;99.90;;;;;;5035291;28;20697;-84
2021/03/15 07:56:19;;;;;;;0.07;0.07;;;7.30;99.90;;;;;;5035141;28;20204;-84
2021/03/15 07:58:44;;;;;;;0.30;0.30;;;7.70;99.90;;;;;;5027125;28;20332;-84
2021/03/15 08:01:12;;;;;;;0.10;0.10;;;8.10;99.90;;;;;;5035763;28;20220;-83
2021/03/15 08:03:39;;;;;;;0.10;0.10;;;8.00;99.90;;;;;;5032352;28;20199;-84
2021/03/15 08:06:10;;;;;;;0.00;0.00;;;7.80;99.90;;;;;;5028396;28;20274;-82
2021/03/15 08:08:35;;;;;;;0.00;0.00;;;8.00;99.90;;;;;;5046832;28;20196;-85
2021/03/15 08:11:06;;;;;;;0.10;0.10;;;8.10;99.90;;;;;;5023367;28;20197;-85
2021/03/15 08:13:38;;;;;;;0.23;0.23;;;8.10;99.90;;;;;;5036811;28;20622;-84
2021/03/15 08:16:05;;;;;;;0.00;0.00;;;8.10;99.90;;;;;;5046989;28;20203;-84
2021/03/15 08:18:32;;;;;;;0.03;0.03;;;8.10;99.90;;;;;;5043504;28;20209;-84
2021/03/15 08:21:06;;;;;;;0.00;0.00;;;8.00;99.90;;;;;;5037176;28;20178;-84
2021/03/15 08:23:38;;;;;;;0.07;0.07;;;8.00;99.90;;;;;;5030849;28;20301;-84
2021/03/15 08:26:06;;;;;;;0.10;0.10;;;7.80;99.90;;;;;;5030993;28;20233;-84
2021/03/15 08:28:33;;;;;;;0.10;0.10;;;7.80;99.90;;;;;;5020464;28;20196;-85
2021/03/15 08:31:11;;;;;;;0.30;0.30;;;7.80;99.90;;;;;;5022901;28;20196;-84
2021/03/15 08:33:38;;;;;;;0.10;0.10;;;7.70;99.90;;;;;;5025768;28;20219;-84
2021/03/15 08:36:04;;;;;;;0.00;0.00;;;7.60;99.90;;;;;;5034840;28;20378;-83
2021/03/15 08:38:31;;;;;;;0.03;0.03;;;7.20;99.90;;;;;;5034481;28;20790;-84
2021/03/15 08:40:59;;;;;;;0.10;0.10;;;7.40;99.90;;;;;;5032795;28;20190;-84
2021/03/15 08:43:29;;;;;;;0.10;0.10;;;7.30;99.90;;;;;;5032888;28;20239;-84
2021/03/15 08:46:00;;;;;;;0.00;0.00;;;7.60;99.90;;;;;;5035890;28;20186;-84
2021/03/15 08:48:37;;;;;;;0.10;0.10;;;7.60;99.90;;;;;;5034423;28;20545;-84
2021/03/15 08:51:08;;;;;;;0.10;0.10;;;7.50;99.90;;;;;;5043708;28;20212;-84
2021/03/15 08:53:37;;;;;;;0.10;0.10;;;7.60;99.90;;;;;;5050393;28;20230;-85
2021/03/15 08:56:14;;;;;;;0.10;0.10;;;7.40;99.90;;;;;;5037386;28;20289;-84
2021/03/15 08:58:47;;;;;;;0.10;0.10;;;7.60;99.90;;;;;;5032480;28;20197;-83
2021/03/15 09:01:21;;;;;;;0.10;0.10;;;7.10;99.90;;;;;;5033529;28;20178;-83
2021/03/15 09:03:56;;;;;;;0.10;0.10;;;7.20;99.90;;;;;;5036644;28;20212;-84
2021/03/15 09:09:07;;;;;;;0.10;0.10;;;7.60;99.90;;;;;;5039886;28;20263;-84
2021/03/15 09:11:38;;;;;;;0.03;0.03;;;7.70;99.90;;;;;;5033642;28;20244;-84
2021/03/15 09:14:16;;;;;;;0.00;0.00;;;7.80;99.90;;;;;;5034503;28;20268;-84
2021/03/15 09:16:45;;;;;;;0.10;0.10;;;7.80;99.90;;;;;;5023784;28;20622;-84
2021/03/15 09:19:34;;;;;;;0.10;0.10;;;7.80;99.90;;;;;;5029946;28;20596;-85
2021/03/15 09:22:01;;;;;;;0.10;0.10;;;7.60;99.90;;;;;;5040400;28;20198;-84
2021/03/15 09:24:46;;;;;;;0.03;0.03;;;7.70;99.90;;;;;;5034648;28;20222;-84
2021/03/15 09:27:28;;;;;;;0.10;0.10;;;7.60;99.90;;;;;;5035759;28;20202;-83
2021/03/15 09:30:00;;;;;;;0.00;0.00;;;7.70;99.90;;;;;;5031467;28;20182;-83
2021/03/15 09:32:33;;;;;;;0.10;0.10;;;7.70;99.90;;;;;;5033746;28;20278;-83
2021/03/15 09:35:14;;;;;;;0.20;0.20;;;8.00;99.90;;;;;;5040782;28;20709;-84
2021/03/15 09:37:41;;;;;;;0.13;0.13;;;7.80;99.90;;;;;;5028450;28;20674;-83
2021/03/15 09:40:11;;;;;;;0.10;0.10;;;7.80;99.90;;;;;;5032593;28;20253;-85
2021/03/15 09:42:41;;;;;;;0.00;0.00;;;8.00;99.90;;;;;;5032352;28;20236;-84
2021/03/15 09:45:08;;;;;;;0.10;0.10;;;7.40;99.90;;;;;;5048533;28;20206;-84
2021/03/15 09:47:34;;;;;;;0.10;0.10;;;7.40;99.90;;;;;;5033666;28;20178;-83
2021/03/15 09:50:00;;;;;;;0.13;0.13;;;7.40;99.90;;;;;;5032304;28;20228;-84
2021/03/15 09:52:26;;;;;;;0.10;0.10;;;7.30;99.90;;;;;;5033375;28;20310;-84
2021/03/15 09:54:53;;;;;;;0.10;0.10;;;7.60;99.90;;;;;;5031631;28;20265;-84
2021/03/15 09:57:20;;;;;;;1.23;0.40;;;7.70;99.90;;;;;;5031351;28;20273;-83
2021/03/15 09:59:47;;;;;;;0.10;0.10;;;7.80;99.90;;;;;;5027429;28;20266;-84
2021/03/15 10:02:14;;;;;;;0.10;0.10;;;7.60;99.90;;;;;;5033177;28;20185;-84
2021/03/15 10:04:41;;;;;;;0.20;0.20;;;7.70;99.90;;;;;;5028220;28;20253;-84
2021/03/15 10:07:10;;;;;;;0.20;0.20;;;7.70;99.90;;;;;;5034504;28;20198;-83
2021/03/15 10:09:40;;;;;;;0.13;0.13;;;7.80;99.90;;;;;;5031931;28;20179;-83
2021/03/15 10:12:17;;;;;;;0.10;0.10;;;7.80;99.90;;;;;;5032754;28;20203;-83
2021/03/15 10:14:42;;;;;;;0.10;0.10;;;7.70;99.90;;;;;;5034190;28;20193;-83
2021/03/15 10:17:08;;;;;;;0.00;0.00;;;7.70;99.90;;;;;;5039056;28;20179;-84
2021/03/15 10:19:34;;;;;;;0.17;0.17;;;7.80;99.90;;;;;;5024042;28;20189;-84
2021/03/15 10:22:11;;;;;;;0.13;0.10;;;7.80;99.90;;;;;;5034498;28;20181;-83
2021/03/15 10:24:38;;;;;;;0.10;0.10;;;7.90;99.90;;;;;;5034424;28;20248;-84
2021/03/15 10:27:05;;;;;;;0.00;0.00;;;8.00;99.90;;;;;;5037718;28;20273;-83
2021/03/15 10:29:32;;;;;;;3.87;0.30;;;8.30;99.90;;;;;;5036066;28;20293;-84
2021/03/15 10:32:06;;;;;;;0.17;0.17;;;8.40;99.90;;;;;;5038312;28;20182;-84
2021/03/15 10:34:32;;;;;;;0.10;0.10;;;8.40;99.90;;;;;;5037489;28;20237;-84
2021/03/15 10:36:58;;;;;;;0.10;0.10;;;8.40;99.90;;;;;;5037475;28;20207;-85
2021/03/15 10:39:26;;;;;;;0.07;0.07;;;8.70;99.90;;;;;;5036135;28;20216;-86
2021/03/15 10:41:54;;;;;;;0.10;0.10;;;9.10;99.90;;;;;;5041741;28;20174;-85
2021/03/15 10:44:21;;;;;;;0.10;0.10;;;9.10;99.90;;;;;;5036626;28;20198;-85
2021/03/15 10:46:48;;;;;;;0.23;0.20;;;9.40;99.90;;;;;;5041744;28;20181;-84
2021/03/15 10:49:20;;;;;;;0.00;0.00;;;9.60;99.90;;;;;;5050729;28;20202;-84
2021/03/15 10:51:48;;;;;;;0.20;0.20;;;9.40;99.90;;;;;;5051297;28;20198;-85
2021/03/15 10:54:33;;;;;;;0.10;0.10;;;9.60;99.90;;;;;;5031926;28;20228;-85
2021/03/15 10:57:20;;;;;;;0.10;0.10;;;9.80;99.90;;;;;;5043507;28;20281;-84
2021/03/15 10:59:47;;;;;;;0.33;0.30;;;10.20;99.90;;;;;;5036297;28;20181;-85
2021/03/15 11:02:24;;;;;;;0.00;0.00;;;10.60;99.90;;;;;;5040920;28;20183;-84
2021/03/15 11:04:55;;;;;;;0.20;0.20;;;10.60;99.90;;;;;;5040439;28;20207;-85
2021/03/15 11:07:29;;;;;;;0.20;0.20;;;10.40;99.90;;;;;;5043551;28;20182;-84
2021/03/15 11:10:21;;;;;;;0.10;0.10;;;10.60;99.90;;;;;;5039676;28;20816;-85
2021/03/15 11:12:51;;;;;;;0.10;0.10;;;11.00;99.90;;;;;;5034655;28;20204;-82
2021/03/15 11:15:22;;;;;;;0.20;0.20;;;10.50;99.90;;;;;;5028699;28;20210;-84
2021/03/15 11:18:19;;;;;;;0.13;0.13;;;10.80;99.90;;;;;;5033622;28;20247;-84
2021/03/15 11:20:53;;;;;;;0.07;0.07;;;10.80;99.90;;;;;;5037362;28;20656;-84
2021/03/15 11:23:33;;;;;;;0.10;0.10;;;10.70;99.90;;;;;;5033800;28;20196;-85
2021/03/15 11:26:00;;;;;;;0.40;0.30;;;10.90;99.90;;;;;;5035538;28;20223;-84
2021/03/15 11:28:31;;;;;;;0.10;0.10;;;11.30;99.90;;;;;;5048223;28;20187;-83
2021/03/15 11:30:59;;;;;;;0.67;0.50;;;11.30;99.90;;;;;;5041596;28;20191;-84
2021/03/15 11:33:25;;;;;;;0.00;0.00;;;11.50;99.90;;;;;;5040690;28;20232;-85
2021/03/15 11:35:51;;;;;;;0.10;0.10;;;11.00;99.90;;;;;;5033480;28;20200;-84
2021/03/15 11:38:22;;;;;;;0.03;0.03;;;11.20;99.90;;;;;;5034983;28;20184;-84
2021/03/15 11:40:47;;;;;;;0.43;0.43;;;11.30;99.90;;;;;;5035971;28;20181;-83
2021/03/15 11:43:14;;;;;;;1.17;0.27;;;11.00;99.90;;;;;;5035865;28;20727;-84
2021/03/15 11:45:40;;;;;;;0.20;0.20;;;10.50;99.90;;;;;;5031478;28;20183;-84
2021/03/15 11:48:07;;;;;;;0.27;0.23;;;11.00;99.90;;;;;;5035190;28;20204;-84
2021/03/15 11:50:34;;;;;;;0.30;0.30;;;11.50;99.90;;;;;;5031686;28;20200;-85
2021/03/15 11:53:02;;;;;;;1.07;0.67;;;11.60;99.90;;;;;;5035945;28;20283;-83
2021/03/15 11:55:28;;;;;;;0.20;0.20;;;11.80;99.90;;;;;;5037358;28;20215;-84
2021/03/15 11:57:54;;;;;;;0.10;0.10;;;11.40;99.90;;;;;;5038844;28;20185;-83
2021/03/15 12:00:21;;;;;;;1.00;0.70;;;11.20;99.90;;;;;;5038717;28;20266;-84
2021/03/15 12:02:48;;;;;;;0.10;0.10;;;11.00;99.90;;;;;;5038449;28;20184;-84
2021/03/15 12:05:15;;;;;;;0.23;0.20;;;11.10;99.90;;;;;;5034920;28;20208;-84
2021/03/15 12:07:41;;;;;;;0.20;0.20;;;11.10;99.90;;;;;;5037642;28;20188;-84
2021/03/15 12:10:09;;;;;;;0.20;0.20;;;11.40;99.90;;;;;;5028825;28;20221;-84
2021/03/15 12:12:35;;;;;;;0.20;0.20;;;11.10;99.90;;;;;;5035391;28;20204;-84
2021/03/15 12:15:03;;;;;;;0.27;0.23;;;11.20;99.90;;;;;;5037969;28;20206;-84
2021/03/15 12:17:28;;;;;;;0.73;0.30;;;11.00;99.90;;;;;;5037498;28;20201;-84
2021/03/15 12:19:55;;;;;;;0.10;0.10;;;11.20;99.90;;;;;;5035051;28;20825;-85
2021/03/15 12:22:21;;;;;;;0.30;0.30;;;11.20;99.90;;;;;;5036368;28;20192;-84
2021/03/15 12:24:47;;;;;;;0.00;0.00;;;10.70;99.90;;;;;;5032184;28;20205;-85
2021/03/15 12:27:12;;;;;;;0.20;0.20;;;11.20;99.90;;;;;;5037954;28;20194;-85
2021/03/15 12:29:38;;;;;;;0.10;0.10;;;11.10;99.90;;;;;;5042202;28;20226;-85
2021/03/15 12:32:04;;;;;;;0.17;0.17;;;11.40;99.90;;;;;;5047943;28;20188;-85
2021/03/15 12:34:31;;;;;;;0.20;0.20;;;11.40;99.90;;;;;;5044451;28;20231;-84
2021/03/15 12:36:56;;;;;;;0.10;0.10;;;11.40;99.90;;;;;;5046957;28;20217;-84
2021/03/15 12:39:22;;;;;;;0.20;0.20;;;11.60;99.90;;;;;;5043678;28;20182;-84
2021/03/15 12:41:48;;;;;;;0.97;0.97;;;12.00;99.90;;;;;;5043718;28;20174;-84
2021/03/15 12:44:13;;;;;;;0.20;0.20;;;12.00;99.90;;;;;;5044368;28;20210;-84
2021/03/15 12:46:39;;;;;;;0.13;0.13;;;11.70;99.90;;;;;;5041670;28;20186;-84
2021/03/15 12:49:05;;;;;;;0.10;0.10;;;11.10;99.90;;;;;;5043210;28;20689;-85
2021/03/15 12:51:32;;;;;;;0.20;0.20;;;10.60;99.90;;;;;;5039925;28;20210;-85
2021/03/15 12:53:57;;;;;;;0.20;0.20;;;9.90;99.90;;;;;;5040797;28;20206;-85
2021/03/15 12:56:23;;;;;;;0.20;0.20;;;9.50;99.90;;;;;;5037584;28;20221;-85
2021/03/15 12:58:48;;;;;;;0.00;0.00;;;8.70;99.90;;;;;;5036510;28;20264;-84
2021/03/15 13:01:14;;;;;;;0.97;0.27;;;8.30;99.90;;;;;;5038085;28;20179;-84
2021/03/15 13:03:40;;;;;;;0.10;0.10;;;8.40;99.90;;;;;;5040150;28;20204;-83
2021/03/15 13:06:05;;;;;;;0.17;0.10;;;8.80;99.90;;;;;;5040987;28;20598;-84
2021/03/15 13:08:31;;;;;;;0.23;0.23;;;9.20;99.90;;;;;;5042040;28;20224;-85
2021/03/15 13:10:56;;;;;;;0.30;0.30;;;9.30;99.90;;;;;;5036467;28;20629;-84